sensor_id;sensor_type;location;lat;lon;timestamp;pressure;altitude;pressure_sealevel;temperature;humidity
10014;BME280;45684;48.358;10.746;2022-11-15T00:00:44;96124.78;;;4.14;100.00
10014;BME280;45684;48.358;10.746;2022-11-15T00:03:32;96121.28;;;4.18;100.00
10014;BME280;45684;48.358;10.746;2022-11-15T00:06:23;96126.09;;;4.21;100.00
10014;BME280;45684;48.358;10.746;2022-11-15T00:09:11;96117.25;;;4.21;100.00
10014;BME280;45684;48.358;10.746;2022-11-15T00:11:58;96113.53;;;4.17;100.00
10014;BME280;45684;48.358;10.746;2022-11-15T00:14:45;96104.41;;;4.18;100.00
10014;BME280;45684;48.358;10.746;2022-11-15T00:17:32;96099.59;;;4.20;100.00
10014;BME280;45684;48.358;10.746;2022-11-15T00:20:18;96102.00;;;4.21;100.00
10014;BME280;45684;48.358;10.746;2022-11-15T00:23:08;96108.44;;;4.20;100.00
10014;BME280;45684;48.358;10.746;2022-11-15T00:25:57;96103.34;;;4.19;100.00
10014;BME280;45684;48.358;10.746;2022-11-15T00:28:45;96096.94;;;4.20;100.00
10014;BME280;45684;48.358;10.746;2022-11-15T00:31:31;96095.31;;;4.19;100.00
10014;BME280;45684;48.358;10.746;2022-11-15T00:34:18;96087.28;;;4.19;100.00
10014;BME280;45684;48.358;10.746;2022-11-15T00:37:06;96089.44;;;4.17;100.00
10014;BME280;45684;48.358;10.746;2022-11-15T00:39:54;96086.22;;;4.15;100.00
10014;BME280;45684;48.358;10.746;2022-11-15T00:42:40;96081.97;;;4.14;100.00
10014;BME280;45684;48.358;10.746;2022-11-15T00:45:27;96088.91;;;4.15;100.00
10014;BME280;45684;48.358;10.746;2022-11-15T00:48:13;96083.56;;;4.15;100.00
10014;BME280;45684;48.358;10.746;2022-11-15T00:51:00;96081.41;;;4.17;100.00
10014;BME280;45684;48.358;10.746;2022-11-15T00:53:46;96083.56;;;4.15;100.00
10014;BME280;45684;48.358;10.746;2022-11-15T00:56:33;96090.81;;;4.09;100.00
10014;BME280;45684;48.358;10.746;2022-11-15T00:59:21;96087.56;;;4.17;100.00
10014;BME280;45684;48.358;10.746;2022-11-15T01:02:08;96086.00;;;4.11;100.00
10014;BME280;45684;48.358;10.746;2022-11-15T01:04:54;96082.31;;;4.02;100.00
10014;BME280;45684;48.358;10.746;2022-11-15T01:07:42;96087.91;;;4.00;100.00
10014;BME280;45684;48.358;10.746;2022-11-15T01:10:28;96090.59;;;4.00;100.00
10014;BME280;45684;48.358;10.746;2022-11-15T01:13:18;96095.44;;;3.98;100.00
10014;BME280;45684;48.358;10.746;2022-11-15T01:16:08;96098.09;;;3.98;100.00
10014;BME280;45684;48.358;10.746;2022-11-15T01:18:55;96099.19;;;3.97;100.00
10014;BME280;45684;48.358;10.746;2022-11-15T01:21:42;96101.34;;;3.90;100.00
10014;BME280;45684;48.358;10.746;2022-11-15T01:24:28;96103.28;;;3.79;100.00
10014;BME280;45684;48.358;10.746;2022-11-15T01:27:14;96106.25;;;3.73;100.00
10014;BME280;45684;48.358;10.746;2022-11-15T01:30:03;96099.28;;;3.72;100.00
10014;BME280;45684;48.358;10.746;2022-11-15T01:32:49;96096.63;;;3.72;100.00
10014;BME280;45684;48.358;10.746;2022-11-15T01:35:38;96086.47;;;3.74;100.00
10014;BME280;45684;48.358;10.746;2022-11-15T01:38:25;96097.69;;;3.76;100.00
10014;BME280;45684;48.358;10.746;2022-11-15T01:41:16;96089.94;;;3.74;100.00
10014;BME280;45684;48.358;10.746;2022-11-15T01:44:31;96085.94;;;3.72;100.00
10014;BME280;45684;48.358;10.746;2022-11-15T01:47:23;96085.41;;;3.70;100.00
10014;BME280;45684;48.358;10.746;2022-11-15T01:50:14;96081.69;;;3.66;100.00
10014;BME280;45684;48.358;10.746;2022-11-15T01:53:02;96077.44;;;3.60;100.00
10014;BME280;45684;48.358;10.746;2022-11-15T01:55:51;96071.03;;;3.55;100.00
10014;BME280;45684;48.358;10.746;2022-11-15T01:58:39;96073.16;;;3.53;100.00
10014;BME280;45684;48.358;10.746;2022-11-15T02:01:28;96073.44;;;3.52;100.00
10014;BME280;45684;48.358;10.746;2022-11-15T02:04:21;96070.25;;;3.45;100.00
10014;BME280;45684;48.358;10.746;2022-11-15T02:07:11;96055.03;;;3.40;100.00
10014;BME280;45684;48.358;10.746;2022-11-15T02:10:02;96063.34;;;3.33;100.00
10014;BME280;45684;48.358;10.746;2022-11-15T02:12:52;96062.84;;;3.26;100.00
10014;BME280;45684;48.358;10.746;2022-11-15T02:15:49;96066.34;;;3.22;100.00
10014;BME280;45684;48.358;10.746;2022-11-15T02:18:46;96055.38;;;3.23;100.00
10014;BME280;45684;48.358;10.746;2022-11-15T02:21:42;96047.34;;;3.23;100.00
10014;BME280;45684;48.358;10.746;2022-11-15T02:24:47;96034.28;;;3.22;100.00
10014;BME280;45684;48.358;10.746;2022-11-15T02:27:58;96028.41;;;3.20;100.00
10014;BME280;45684;48.358;10.746;2022-11-15T02:30:53;96028.69;;;3.18;100.00
10014;BME280;45684;48.358;10.746;2022-11-15T02:33:50;96031.09;;;3.10;100.00
10014;BME280;45684;48.358;10.746;2022-11-15T02:36:44;96021.78;;;3.02;100.00
10014;BME280;45684;48.358;10.746;2022-11-15T02:39:36;96023.09;;;3.04;100.00
10014;BME280;45684;48.358;10.746;2022-11-15T02:42:29;96021.25;;;3.00;100.00
10014;BME280;45684;48.358;10.746;2022-11-15T02:45:39;96026.06;;;2.93;100.00
10014;BME280;45684;48.358;10.746;2022-11-15T02:48:30;96018.88;;;2.88;100.00
10014;BME280;45684;48.358;10.746;2022-11-15T02:51:21;96022.34;;;2.84;100.00
10014;BME280;45684;48.358;10.746;2022-11-15T02:54:12;96019.94;;;2.82;100.00
10014;BME280;45684;48.358;10.746;2022-11-15T02:57:03;96006.63;;;2.77;100.00
10014;BME280;45684;48.358;10.746;2022-11-15T03:00:02;95999.41;;;2.72;100.00
10014;BME280;45684;48.358;10.746;2022-11-15T03:06:26;95990.59;;;2.77;100.00
10014;BME280;45684;48.358;10.746;2022-11-15T03:09:22;95995.94;;;2.77;100.00
10014;BME280;45684;48.358;10.746;2022-11-15T03:12:19;95997.00;;;2.81;100.00
10014;BME280;45684;48.358;10.746;2022-11-15T03:15:15;95996.72;;;2.77;100.00
10014;BME280;45684;48.358;10.746;2022-11-15T03:18:08;96004.47;;;2.74;100.00
10014;BME280;45684;48.358;10.746;2022-11-15T03:21:01;96000.22;;;2.73;100.00
10014;BME280;45684;48.358;10.746;2022-11-15T03:23:52;95987.94;;;2.72;100.00
10014;BME280;45684;48.358;10.746;2022-11-15T03:26:41;95990.34;;;2.68;100.00
10014;BME280;45684;48.358;10.746;2022-11-15T03:29:32;95995.41;;;2.70;100.00
10014;BME280;45684;48.358;10.746;2022-11-15T03:32:23;95990.34;;;2.68;100.00
10014;BME280;45684;48.358;10.746;2022-11-15T03:35:13;95984.22;;;2.68;100.00
10014;BME280;45684;48.358;10.746;2022-11-15T03:38:06;95982.88;;;2.65;100.00
10014;BME280;45684;48.358;10.746;2022-11-15T03:40:59;95979.16;;;2.61;100.00
10014;BME280;45684;48.358;10.746;2022-11-15T03:43:51;95968.22;;;2.63;100.00
10014;BME280;45684;48.358;10.746;2022-11-15T03:46:45;95967.13;;;2.64;100.00
10014;BME280;45684;48.358;10.746;2022-11-15T03:49:34;95979.94;;;2.51;100.00
10014;BME280;45684;48.358;10.746;2022-11-15T03:52:21;95971.16;;;2.41;100.00
10014;BME280;45684;48.358;10.746;2022-11-15T03:55:11;95973.06;;;2.35;100.00
10014;BME280;45684;48.358;10.746;2022-11-15T03:58:01;95971.47;;;2.34;100.00
10014;BME280;45684;48.358;10.746;2022-11-15T04:00:48;95972.50;;;2.33;100.00
10014;BME280;45684;48.358;10.746;2022-11-15T04:03:35;95973.31;;;2.39;100.00
10014;BME280;45684;48.358;10.746;2022-11-15T04:06:21;95971.97;;;2.36;100.00
10014;BME280;45684;48.358;10.746;2022-11-15T04:09:08;95973.06;;;2.35;100.00
10014;BME280;45684;48.358;10.746;2022-11-15T04:11:54;95973.31;;;2.39;100.00
10014;BME280;45684;48.358;10.746;2022-11-15T04:14:41;95969.03;;;2.38;100.00
10014;BME280;45684;48.358;10.746;2022-11-15T04:17:50;95971.47;;;2.34;100.00
10014;BME280;45684;48.358;10.746;2022-11-15T04:20:37;95964.25;;;2.35;100.00
10014;BME280;45684;48.358;10.746;2022-11-15T04:23:50;95966.91;;;2.40;100.00
10014;BME280;45684;48.358;10.746;2022-11-15T04:26:57;95955.16;;;2.36;100.00
10014;BME280;45684;48.358;10.746;2022-11-15T04:30:03;95955.44;;;2.39;100.00
10014;BME280;45684;48.358;10.746;2022-11-15T04:32:53;95947.16;;;2.41;100.00
10014;BME280;45684;48.358;10.746;2022-11-15T04:35:42;95943.19;;;2.38;100.00
10014;BME280;45684;48.358;10.746;2022-11-15T04:38:31;95945.00;;;2.38;100.00
10014;BME280;45684;48.358;10.746;2022-11-15T04:41:18;95936.50;;;2.36;100.00
10014;BME280;45684;48.358;10.746;2022-11-15T04:44:13;95933.84;;;2.25;100.00
10014;BME280;45684;48.358;10.746;2022-11-15T04:47:01;95928.53;;;2.20;100.00
10014;BME280;45684;48.358;10.746;2022-11-15T04:49:48;95929.31;;;2.21;100.00
10014;BME280;45684;48.358;10.746;2022-11-15T04:52:34;95933.06;;;2.25;100.00
10014;BME280;45684;48.358;10.746;2022-11-15T04:55:21;95933.56;;;2.27;100.00
10014;BME280;45684;48.358;10.746;2022-11-15T04:58:09;95928.22;;;2.27;100.00
10014;BME280;45684;48.358;10.746;2022-11-15T05:00:55;95930.38;;;2.25;100.00
10014;BME280;45684;48.358;10.746;2022-11-15T05:03:43;95933.84;;;2.25;100.00
10014;BME280;45684;48.358;10.746;2022-11-15T05:06:50;95934.09;;;2.19;100.00
10014;BME280;45684;48.358;10.746;2022-11-15T05:09:36;95928.25;;;2.17;100.00
10014;BME280;45684;48.358;10.746;2022-11-15T05:12:23;95929.84;;;2.18;100.00
10014;BME280;45684;48.358;10.746;2022-11-15T05:15:09;95920.25;;;2.17;100.00
10014;BME280;45684;48.358;10.746;2022-11-15T05:17:59;95914.13;;;2.16;100.00
10014;BME280;45684;48.358;10.746;2022-11-15T05:20:47;95922.38;;;2.10;100.00
10014;BME280;45684;48.358;10.746;2022-11-15T05:23:33;95921.06;;;2.12;100.00
10014;BME280;45684;48.358;10.746;2022-11-15T05:26:19;95916.81;;;2.06;100.00
10014;BME280;45684;48.358;10.746;2022-11-15T05:29:09;95913.88;;;2.02;100.00
10014;BME280;45684;48.358;10.746;2022-11-15T05:31:55;95910.91;;;2.04;100.00
10014;BME280;45684;48.358;10.746;2022-11-15T05:34:41;95912.78;;;2.03;100.00
10014;BME280;45684;48.358;10.746;2022-11-15T05:37:29;95909.03;;;2.04;100.00
10014;BME280;45684;48.358;10.746;2022-11-15T05:40:15;95904.25;;;2.07;100.00
10014;BME280;45684;48.358;10.746;2022-11-15T05:43:03;95901.84;;;2.05;100.00
10014;BME280;45684;48.358;10.746;2022-11-15T05:45:50;95890.94;;;2.07;100.00
10014;BME280;45684;48.358;10.746;2022-11-15T05:48:39;95901.59;;;2.01;100.00
10014;BME280;45684;48.358;10.746;2022-11-15T05:51:27;95916.53;;;1.97;100.00
10014;BME280;45684;48.358;10.746;2022-11-15T05:54:16;95921.88;;;1.97;100.00
10014;BME280;45684;48.358;10.746;2022-11-15T05:57:03;95910.94;;;1.89;100.00
10014;BME280;45684;48.358;10.746;2022-11-15T05:59:51;95903.72;;;1.89;100.00
10014;BME280;45684;48.358;10.746;2022-11-15T06:02:37;95897.59;;;1.89;100.00
10014;BME280;45684;48.358;10.746;2022-11-15T06:05:24;95900.28;;;1.89;100.00
10014;BME280;45684;48.358;10.746;2022-11-15T06:08:10;95909.06;;;1.89;100.00
10014;BME280;45684;48.358;10.746;2022-11-15T06:11:04;95898.41;;;1.79;100.00
10014;BME280;45684;48.358;10.746;2022-11-15T06:13:51;95902.41;;;1.76;100.00
10014;BME280;45684;48.358;10.746;2022-11-15T06:16:40;95903.47;;;1.81;100.00
10014;BME280;45684;48.358;10.746;2022-11-15T06:19:26;95901.88;;;1.79;100.00
10014;BME280;45684;48.358;10.746;2022-11-15T06:22:17;95902.41;;;1.76;100.00
10014;BME280;45684;48.358;10.746;2022-11-15T06:25:05;95902.41;;;1.76;100.00
10014;BME280;45684;48.358;10.746;2022-11-15T06:27:54;95903.75;;;1.74;100.00
10014;BME280;45684;48.358;10.746;2022-11-15T06:30:40;95892.53;;;1.77;100.00
10014;BME280;45684;48.358;10.746;2022-11-15T06:33:26;95902.66;;;1.80;100.00
10014;BME280;45684;48.358;10.746;2022-11-15T06:36:13;95909.34;;;1.77;100.00
10014;BME280;45684;48.358;10.746;2022-11-15T06:39:03;95920.25;;;1.81;100.00
10014;BME280;45684;48.358;10.746;2022-11-15T06:41:49;95920.25;;;1.81;100.00
10014;BME280;45684;48.358;10.746;2022-11-15T06:44:37;95919.22;;;1.82;100.00
10014;BME280;45684;48.358;10.746;2022-11-15T06:47:23;95916.00;;;1.85;100.00
10014;BME280;45684;48.358;10.746;2022-11-15T06:50:10;95910.66;;;1.90;100.00
10014;BME280;45684;48.358;10.746;2022-11-15T06:53:01;95912.53;;;1.95;100.00
10014;BME280;45684;48.358;10.746;2022-11-15T06:55:47;95915.19;;;1.95;100.00
10014;BME280;45684;48.358;10.746;2022-11-15T06:58:39;95918.13;;;1.93;100.00
10014;BME280;45684;48.358;10.746;2022-11-15T07:01:27;95917.84;;;1.95;100.00
10014;BME280;45684;48.358;10.746;2022-11-15T07:04:13;95910.13;;;1.98;100.00
10014;BME280;45684;48.358;10.746;2022-11-15T07:07:00;95907.19;;;2.00;100.00
10014;BME280;45684;48.358;10.746;2022-11-15T07:09:49;95909.31;;;2.03;100.00
10014;BME280;45684;48.358;10.746;2022-11-15T07:12:35;95905.84;;;2.08;100.00
10014;BME280;45684;48.358;10.746;2022-11-15T07:15:25;95913.34;;;2.11;100.00
10014;BME280;45684;48.358;10.746;2022-11-15T07:18:13;95919.72;;;2.15;100.00
10014;BME280;45684;48.358;10.746;2022-11-15T07:21:01;95914.13;;;2.16;100.00
10014;BME280;45684;48.358;10.746;2022-11-15T07:23:52;95895.97;;;2.18;100.00
10014;BME280;45684;48.358;10.746;2022-11-15T07:26:39;95891.69;;;2.22;100.00
10014;BME280;45684;48.358;10.746;2022-11-15T07:29:25;95895.16;;;2.28;100.00
10014;BME280;45684;48.358;10.746;2022-11-15T07:32:11;95898.06;;;2.37;100.00
10014;BME280;45684;48.358;10.746;2022-11-15T07:34:59;95891.16;;;2.30;100.00
10014;BME280;45684;48.358;10.746;2022-11-15T07:37:53;95886.88;;;2.35;100.00
10014;BME280;45684;48.358;10.746;2022-11-15T07:40:40;95878.59;;;2.36;100.00
10014;BME280;45684;48.358;10.746;2022-11-15T07:43:27;95874.31;;;2.40;100.00
10014;BME280;45684;48.358;10.746;2022-11-15T07:46:15;95875.66;;;2.48;100.00
10014;BME280;45684;48.358;10.746;2022-11-15T07:49:01;95876.13;;;2.55;100.00
10014;BME280;45684;48.358;10.746;2022-11-15T07:51:52;95872.13;;;2.63;100.00
10014;BME280;45684;48.358;10.746;2022-11-15T07:54:39;95862.75;;;2.65;100.00
10014;BME280;45684;48.358;10.746;2022-11-15T07:57:26;95860.59;;;2.72;100.00
10014;BME280;45684;48.358;10.746;2022-11-15T08:00:14;95851.75;;;2.82;100.00
10014;BME280;45684;48.358;10.746;2022-11-15T08:03:04;95857.06;;;2.87;100.00
10014;BME280;45684;48.358;10.746;2022-11-15T08:05:51;95853.56;;;2.92;100.00
10014;BME280;45684;48.358;10.746;2022-11-15T08:08:39;95854.88;;;2.99;100.00
10014;BME280;45684;48.358;10.746;2022-11-15T08:11:25;95848.38;;;3.11;100.00
10014;BME280;45684;48.358;10.746;2022-11-15T08:14:11;95862.47;;;3.21;100.00
10014;BME280;45684;48.358;10.746;2022-11-15T08:16:58;95857.88;;;3.32;100.00
10014;BME280;45684;48.358;10.746;2022-11-15T08:19:44;95847.38;;;3.46;100.00
10014;BME280;45684;48.358;10.746;2022-11-15T08:22:31;95847.53;;;3.60;100.00
10014;BME280;45684;48.358;10.746;2022-11-15T08:25:18;95843.13;;;3.74;100.00
10014;BME280;45684;48.358;10.746;2022-11-15T08:28:07;95840.63;;;3.88;100.00
10014;BME280;45684;48.358;10.746;2022-11-15T08:30:54;95833.78;;;4.00;100.00
10014;BME280;45684;48.358;10.746;2022-11-15T08:33:43;95828.88;;;4.13;100.00
10014;BME280;45684;48.358;10.746;2022-11-15T08:36:31;95827.66;;;4.24;100.00
10014;BME280;45684;48.358;10.746;2022-11-15T08:39:32;95830.69;;;4.41;100.00
10014;BME280;45684;48.358;10.746;2022-11-15T08:42:23;95824.97;;;4.53;100.00
10014;BME280;45684;48.358;10.746;2022-11-15T08:45:17;95818.88;;;4.66;100.00
10014;BME280;45684;48.358;10.746;2022-11-15T08:48:03;95818.19;;;4.79;100.00
10014;BME280;45684;48.358;10.746;2022-11-15T08:50:53;95821.25;;;4.92;100.00
10014;BME280;45684;48.358;10.746;2022-11-15T08:53:40;95815.97;;;5.05;100.00
10014;BME280;45684;48.358;10.746;2022-11-15T08:56:28;95811.00;;;5.18;100.00
10014;BME280;45684;48.358;10.746;2022-11-15T08:59:17;95819.88;;;5.32;100.00
10014;BME280;45684;48.358;10.746;2022-11-15T09:02:04;95823.22;;;5.43;100.00
10014;BME280;45684;48.358;10.746;2022-11-15T09:04:50;95834.00;;;5.56;100.00
10014;BME280;45684;48.358;10.746;2022-11-15T09:07:37;95830.03;;;5.68;100.00
10014;BME280;45684;48.358;10.746;2022-11-15T09:10:24;95829.59;;;5.79;100.00
10014;BME280;45684;48.358;10.746;2022-11-15T09:13:10;95815.22;;;5.89;100.00
10014;BME280;45684;48.358;10.746;2022-11-15T09:15:58;95815.38;;;5.98;100.00
10014;BME280;45684;48.358;10.746;2022-11-15T09:18:46;95812.81;;;6.06;100.00
10014;BME280;45684;48.358;10.746;2022-11-15T09:21:32;95808.13;;;6.12;100.00
10014;BME280;45684;48.358;10.746;2022-11-15T09:24:19;95813.91;;;6.19;100.00
10014;BME280;45684;48.358;10.746;2022-11-15T09:27:06;95815.09;;;6.27;100.00
10014;BME280;45684;48.358;10.746;2022-11-15T09:29:52;95812.81;;;6.34;100.00
10014;BME280;45684;48.358;10.746;2022-11-15T09:32:40;95810.53;;;6.41;100.00
10014;BME280;45684;48.358;10.746;2022-11-15T09:35:26;95812.53;;;6.49;100.00
10014;BME280;45684;48.358;10.746;2022-11-15T09:38:13;95811.53;;;6.59;100.00
10014;BME280;45684;48.358;10.746;2022-11-15T09:41:32;95803.06;;;6.65;100.00
10014;BME280;45684;48.358;10.746;2022-11-15T09:44:43;95797.59;;;6.71;100.00
10014;BME280;45684;48.358;10.746;2022-11-15T09:47:51;95789.94;;;6.78;100.00
10014;BME280;45684;48.358;10.746;2022-11-15T09:50:48;95777.19;;;6.83;100.00
10014;BME280;45684;48.358;10.746;2022-11-15T09:53:24;95770.91;;;6.88;100.00
10014;BME280;45684;48.358;10.746;2022-11-15T09:56:17;95768.09;;;6.93;100.00
10014;BME280;45684;48.358;10.746;2022-11-15T09:58:54;95767.19;;;6.98;100.00
10014;BME280;45684;48.358;10.746;2022-11-15T10:01:38;95771.34;;;7.04;100.00
10014;BME280;45684;48.358;10.746;2022-11-15T10:04:18;95764.25;;;7.08;100.00
10014;BME280;45684;48.358;10.746;2022-11-15T10:07:00;95766.84;;;7.13;100.00
10014;BME280;45684;48.358;10.746;2022-11-15T10:09:35;95751.22;;;7.15;100.00
10014;BME280;45684;48.358;10.746;2022-11-15T10:12:06;95742.53;;;7.18;100.00
10014;BME280;45684;48.358;10.746;2022-11-15T10:14:35;95744.81;;;7.25;100.00
10014;BME280;45684;48.358;10.746;2022-11-15T10:17:17;95739.28;;;7.30;100.00
10014;BME280;45684;48.358;10.746;2022-11-15T10:20:05;95734.31;;;7.37;100.00
10014;BME280;45684;48.358;10.746;2022-11-15T10:22:39;95726.09;;;7.42;100.00
10014;BME280;45684;48.358;10.746;2022-11-15T10:25:16;95729.47;;;7.48;100.00
10014;BME280;45684;48.358;10.746;2022-11-15T10:27:51;95717.97;;;7.56;100.00
10014;BME280;45684;48.358;10.746;2022-11-15T10:30:20;95722.56;;;7.64;100.00
10014;BME280;45684;48.358;10.746;2022-11-15T10:32:48;95716.00;;;7.70;100.00
10014;BME280;45684;48.358;10.746;2022-11-15T10:35:21;95706.22;;;7.83;100.00
10014;BME280;45684;48.358;10.746;2022-11-15T10:37:50;95709.13;;;7.95;100.00
10014;BME280;45684;48.358;10.746;2022-11-15T10:40:21;95712.34;;;8.06;100.00
10014;BME280;45684;48.358;10.746;2022-11-15T10:43:10;95700.47;;;8.15;100.00
10014;BME280;45684;48.358;10.746;2022-11-15T10:45:40;95690.25;;;8.26;100.00
10014;BME280;45684;48.358;10.746;2022-11-15T10:48:21;95691.84;;;8.36;100.00
10014;BME280;45684;48.358;10.746;2022-11-15T10:50:51;95688.91;;;8.55;100.00
10014;BME280;45684;48.358;10.746;2022-11-15T10:53:26;95687.19;;;8.67;100.00
10014;BME280;45684;48.358;10.746;2022-11-15T10:55:59;95675.75;;;8.79;100.00
10014;BME280;45684;48.358;10.746;2022-11-15T10:58:36;95686.84;;;9.04;100.00
10014;BME280;45684;48.358;10.746;2022-11-15T11:01:12;95683.38;;;9.12;100.00
10014;BME280;45684;48.358;10.746;2022-11-15T11:03:45;95681.31;;;9.17;100.00
10014;BME280;45684;48.358;10.746;2022-11-15T11:06:46;95675.09;;;9.26;100.00
10014;BME280;45684;48.358;10.746;2022-11-15T11:09:30;95674.16;;;9.30;100.00
10014;BME280;45684;48.358;10.746;2022-11-15T11:12:00;95667.97;;;9.38;100.00
10014;BME280;45684;48.358;10.746;2022-11-15T11:14:40;95663.00;;;9.49;100.00
10014;BME280;45684;48.358;10.746;2022-11-15T11:17:16;95662.38;;;9.52;100.00
10014;BME280;45684;48.358;10.746;2022-11-15T11:19:55;95664.91;;;9.57;100.00
10014;BME280;45684;48.358;10.746;2022-11-15T11:22:36;95652.97;;;9.67;100.00
10014;BME280;45684;48.358;10.746;2022-11-15T11:25:19;95650.69;;;9.78;100.00
10014;BME280;45684;48.358;10.746;2022-11-15T11:28:04;95654.00;;;9.83;100.00
10014;BME280;45684;48.358;10.746;2022-11-15T11:30:43;95650.66;;;9.86;100.00
10014;BME280;45684;48.358;10.746;2022-11-15T11:33:19;95645.41;;;9.90;100.00
10014;BME280;45684;48.358;10.746;2022-11-15T11:36:03;95647.94;;;9.95;100.00
10014;BME280;45684;48.358;10.746;2022-11-15T11:38:51;95646.31;;;10.03;100.00
10014;BME280;45684;48.358;10.746;2022-11-15T11:44:32;95643.34;;;10.16;100.00
10014;BME280;45684;48.358;10.746;2022-11-15T11:47:02;95641.59;;;10.20;100.00
10014;BME280;45684;48.358;10.746;2022-11-15T11:49:39;95634.75;;;10.23;100.00
10014;BME280;45684;48.358;10.746;2022-11-15T11:52:17;95637.94;;;10.25;100.00
10014;BME280;45684;48.358;10.746;2022-11-15T11:54:55;95638.25;;;10.23;100.00
10014;BME280;45684;48.358;10.746;2022-11-15T11:57:33;95636.34;;;10.24;100.00
10014;BME280;45684;48.358;10.746;2022-11-15T12:00:12;95635.53;;;10.23;100.00
10014;BME280;45684;48.358;10.746;2022-11-15T12:02:59;95627.91;;;10.26;100.00
10014;BME280;45684;48.358;10.746;2022-11-15T12:05:32;95625.34;;;10.29;100.00
10014;BME280;45684;48.358;10.746;2022-11-15T12:08:22;95620.88;;;10.33;100.00
10014;BME280;45684;48.358;10.746;2022-11-15T12:11:00;95616.75;;;10.36;100.00
10014;BME280;45684;48.358;10.746;2022-11-15T12:13:35;95611.78;;;10.38;100.00
10014;BME280;45684;48.358;10.746;2022-11-15T12:16:12;95605.75;;;10.41;100.00
10014;BME280;45684;48.358;10.746;2022-11-15T12:18:44;95604.63;;;10.42;100.00
10014;BME280;45684;48.358;10.746;2022-11-15T12:21:21;95601.25;;;10.45;100.00
10014;BME280;45684;48.358;10.746;2022-11-15T12:23:58;95604.88;;;10.49;100.00
10014;BME280;45684;48.358;10.746;2022-11-15T12:26:36;95613.25;;;10.56;100.00
10014;BME280;45684;48.358;10.746;2022-11-15T12:29:11;95611.47;;;10.60;100.00
10014;BME280;45684;48.358;10.746;2022-11-15T12:31:45;95617.13;;;10.67;100.00
10014;BME280;45684;48.358;10.746;2022-11-15T12:34:35;95618.41;;;10.70;100.00
10014;BME280;45684;48.358;10.746;2022-11-15T12:37:33;95599.63;;;10.73;100.00
10014;BME280;45684;48.358;10.746;2022-11-15T12:40:20;95605.47;;;10.76;100.00
10014;BME280;45684;48.358;10.746;2022-11-15T12:43:03;95596.22;;;10.77;100.00
10014;BME280;45684;48.358;10.746;2022-11-15T12:45:34;95599.41;;;10.79;100.00
10014;BME280;45684;48.358;10.746;2022-11-15T12:51:08;95608.47;;;10.95;100.00
10014;BME280;45684;48.358;10.746;2022-11-15T12:53:43;95605.47;;;10.96;100.00
10014;BME280;45684;48.358;10.746;2022-11-15T12:56:24;95598.28;;;11.01;100.00
10014;BME280;45684;48.358;10.746;2022-11-15T12:58:56;95597.59;;;11.04;100.00
10014;BME280;45684;48.358;10.746;2022-11-15T13:01:58;95597.06;;;11.10;100.00
10014;BME280;45684;48.358;10.746;2022-11-15T13:04:29;95601.91;;;11.17;100.00
10014;BME280;45684;48.358;10.746;2022-11-15T13:07:01;95594.38;;;11.22;100.00
10014;BME280;45684;48.358;10.746;2022-11-15T13:10:28;95613.00;;;11.24;100.00
10014;BME280;45684;48.358;10.746;2022-11-15T13:12:59;95601.84;;;11.26;100.00
10014;BME280;45684;48.358;10.746;2022-11-15T13:15:35;95595.06;;;11.32;100.00
10014;BME280;45684;48.358;10.746;2022-11-15T13:18:30;95607.59;;;11.36;100.00
10014;BME280;45684;48.358;10.746;2022-11-15T13:21:00;95605.25;;;11.35;100.00
10014;BME280;45684;48.358;10.746;2022-11-15T13:23:55;95606.91;;;11.27;100.00
10014;BME280;45684;48.358;10.746;2022-11-15T13:26:27;95604.75;;;11.20;100.00
10014;BME280;45684;48.358;10.746;2022-11-15T13:28:58;95611.47;;;11.14;100.00
10014;BME280;45684;48.358;10.746;2022-11-15T13:31:34;95599.63;;;11.07;100.00
10014;BME280;45684;48.358;10.746;2022-11-15T13:34:17;95589.69;;;10.98;100.00
10014;BME280;45684;48.358;10.746;2022-11-15T13:37:16;95596.44;;;10.92;100.00
10014;BME280;45684;48.358;10.746;2022-11-15T13:40:10;95584.56;;;10.85;100.00
10014;BME280;45684;48.358;10.746;2022-11-15T13:42:43;95594.78;;;10.79;100.00
10014;BME280;45684;48.358;10.746;2022-11-15T13:45:17;95592.75;;;10.76;100.00
10014;BME280;45684;48.358;10.746;2022-11-15T13:47:54;95597.69;;;10.74;100.00
10014;BME280;45684;48.358;10.746;2022-11-15T13:50:26;95599.47;;;10.70;100.00
10014;BME280;45684;48.358;10.746;2022-11-15T13:52:58;95588.53;;;10.66;100.00
10014;BME280;45684;48.358;10.746;2022-11-15T13:55:29;95586.81;;;10.62;100.00
10014;BME280;45684;48.358;10.746;2022-11-15T13:58:02;95588.28;;;10.59;100.00
10014;BME280;45684;48.358;10.746;2022-11-15T14:00:37;95588.47;;;10.54;100.00
10014;BME280;45684;48.358;10.746;2022-11-15T14:03:18;95589.38;;;10.58;100.00
10014;BME280;45684;48.358;10.746;2022-11-15T14:06:03;95575.84;;;10.58;100.00
10014;BME280;45684;48.358;10.746;2022-11-15T14:08:37;95582.72;;;10.56;100.00
10014;BME280;45684;48.358;10.746;2022-11-15T14:11:07;95583.06;;;10.54;100.00
10014;BME280;45684;48.358;10.746;2022-11-15T14:13:35;95583.72;;;10.51;100.00
10014;BME280;45684;48.358;10.746;2022-11-15T14:16:16;95579.31;;;10.46;100.00
10014;BME280;45684;48.358;10.746;2022-11-15T14:18:51;95569.94;;;10.44;100.00
10014;BME280;45684;48.358;10.746;2022-11-15T14:21:20;95569.81;;;10.40;100.00
10014;BME280;45684;48.358;10.746;2022-11-15T14:23:47;95567.44;;;10.39;100.00
10014;BME280;45684;48.358;10.746;2022-11-15T14:26:30;95561.63;;;10.28;100.00
10014;BME280;45684;48.358;10.746;2022-11-15T14:29:22;95551.47;;;10.25;100.00
10014;BME280;45684;48.358;10.746;2022-11-15T14:31:50;95553.56;;;10.19;100.00
10014;BME280;45684;48.358;10.746;2022-11-15T14:34:22;95545.31;;;10.16;100.00